Tulsa, OK (74106)

2:58 AM CDT on July 03, 2015 (GMT -0500)
Lansing | | Change Station
CLOSE
Current Station
Personal Weather Station
Location: Tulsa, OK
Elevation: 640 ft
Nearby Weather Stations

Elev 640 ft 36.21 °N, 95.98 °W | Updated 6 minutes ago

Overcast
Overcast
71.6 °F
Feels Like 71.6 °F
N
0.0
Wind Variable Wind from West

Today
High -- | Low -- °F
--% Chance of Precip.
Yesterday
High -- | Low -- °F
Precip. -- in
6:11 AM 8:44 PM
Full, 98% visible
Pressure 29.87 in
Visibility 10.0 miles
Clouds Overcast 12000 ft
Dew Point 71 °F
Humidity 98%
Rainfall 0.05 in
Snow Depth Not available.
UV 0 out of 12
Pollen 1.60 out of 12
Air Quality Not available.
Flu Activity Not available.
METAR KTUL 030753Z 29003KT 10SM OVC120 23/22 A2990 RMK AO2 RAE20 SLP115 P0000 T02330217

More Conditions Fewer Conditions

Pressure 29.87 in
Visibility 10.0 miles
Clouds Overcast 12000 ft
Dew Point 71 °F
Humidity 98%
Rainfall 0.05 in
Snow Depth Not available.
UV 0 out of 12
Pollen 1.60 out of 12
Air Quality Not available.
Flu Activity Not available.
METAR KTUL 030753Z 29003KT 10SM OVC120 23/22 A2990 RMK AO2 RAE20 SLP115 P0000 T02330217

More Conditions Fewer Conditions

Nowcast | as of 2:52 am CDT on July 3, 2015

at 2:52 am...scattered showers and isolated thunderstorms continue across parts of eastern Oklahoma and western Arkansas...generally south of Highway 412. All activity was moving to the east and southeast at 25 mph. Through 4 am...showers and occasional thunderstorms will continue moving across eastern Oklahoma and west central Arkansas. Rainfall amounts will range from a tenth of an inch to upwards of one-half inch in thunderstorms. Gusty winds may also occur with the stronger storms.

×

10-Day Weather Forecast

×

Almanac

Astronomy

Jul. 03, 2015 Rise Set
Actual Time
Civil Twilight
Nautical Twilight
Astronomical Twilight
Moon
Length of Visible Light
Length of Day
Tomorrow will be .
, % of the Moon is Illuminated

Today's Extremes

State Highs State Lows

Community

WunderPhotos

Upload Photos

1,834,634 photos uploaded!

WunderBlogs® & News

Nearby

Air Quality

  Air Quality AQ Index Pollutant
Not available.

Snow Depth

Station Depth Elevation

Earthquake Activity

City Distance Mag. Time & Date
Minimum magnitude displayed is 2.5.

Coastal Water Temperatures

Place Temperature

Stations

Nearby Weather Stations

Station Location Temp. Windchill Dew Point Humidity Wind Precip. Elev Updated Type